Time;durP1;ratioP1;P1;durP2;ratioP2;P2;SDS_P1;SDS_P2;PMS_P1;PMS_P2;Temp;Humidity;BMP_temperature;BMP_pressure;BME280_temperature;BME280_humidity;BME280_pressure;Samples;Min_cycle;Max_cycle;Signal;HPM_P1;HPM_P2
2022/05/01 00:00:05;;;;;;;10.15;2.83;;;;;;;;;;5038533;28;20058;-63
2022/05/01 00:02:32;;;;;;;6.68;2.55;;;;;;;;;;5038029;28;20041;-65
2022/05/01 00:04:58;;;;;;;5.55;1.98;;;;;;;;;;5038905;28;20029;-65
2022/05/01 00:07:25;;;;;;;5.57;2.10;;;;;;;;;;5037398;28;20057;-65
2022/05/01 00:09:52;;;;;;;6.30;2.38;;;;;;;;;;5019000;28;20056;-65
2022/05/01 00:12:18;;;;;;;5.40;1.95;;;;;;;;;;5037395;28;20095;-66
2022/05/01 00:14:45;;;;;;;6.78;2.20;;;;;;;;;;5036667;28;20051;-65
2022/05/01 00:17:12;;;;;;;4.90;2.03;;;;;;;;;;5021355;28;20048;-65
2022/05/01 00:19:39;;;;;;;6.38;2.00;;;;;;;;;;5036724;28;20033;-65
2022/05/01 00:22:05;;;;;;;7.75;2.13;;;;;;;;;;5018677;28;20580;-65
2022/05/01 00:24:32;;;;;;;6.43;2.40;;;;;;;;;;5018437;28;20063;-65
2022/05/01 00:27:00;;;;;;;6.40;2.13;;;;;;;;;;5009417;28;20606;-66
2022/05/01 00:29:27;;;;;;;5.47;2.40;;;;;;;;;;5019514;28;20474;-66
2022/05/01 00:31:54;;;;;;;5.70;2.35;;;;;;;;;;5019501;28;20091;-65
2022/05/01 00:37:09;;;;;;;8.20;2.42;;;;;;;;;;5019388;28;20126;-65
2022/05/01 00:39:36;;;;;;;11.18;2.50;;;;;;;;;;5016610;28;20038;-65
2022/05/01 00:42:02;;;;;;;7.70;2.22;;;;;;;;;;5017269;28;20037;-65
2022/05/01 00:44:29;;;;;;;14.38;2.63;;;;;;;;;;5016873;28;20097;-65
2022/05/01 00:46:57;;;;;;;8.73;2.00;;;;;;;;;;5016956;28;20049;-65
2022/05/01 00:49:24;;;;;;;7.65;1.95;;;;;;;;;;5016948;28;20048;-64
2022/05/01 00:51:53;;;;;;;6.97;2.10;;;;;;;;;;5017771;28;20041;-65
2022/05/01 00:54:23;;;;;;;6.72;2.15;;;;;;;;;;5020764;28;20131;-65
2022/05/01 00:56:51;;;;;;;5.85;1.85;;;;;;;;;;5021881;28;20041;-64
2022/05/01 00:59:18;;;;;;;6.78;1.95;;;;;;;;;;5020560;28;20041;-64
2022/05/01 01:01:45;;;;;;;7.80;2.10;;;;;;;;;;5019781;28;20046;-67
2022/05/01 01:04:12;;;;;;;7.47;2.15;;;;;;;;;;5021344;28;20096;-64
2022/05/01 01:06:39;;;;;;;9.73;2.00;;;;;;;;;;5020707;28;20053;-64
2022/05/01 01:09:06;;;;;;;5.72;1.90;;;;;;;;;;5021462;28;20087;-64
2022/05/01 01:11:33;;;;;;;6.63;1.95;;;;;;;;;;5020056;28;20690;-64
2022/05/01 01:14:03;;;;;;;5.32;2.17;;;;;;;;;;5020853;28;20033;-64
2022/05/01 01:16:29;;;;;;;8.35;2.00;;;;;;;;;;5020951;28;20469;-64
2022/05/01 01:18:57;;;;;;;4.57;1.55;;;;;;;;;;5022610;28;20056;-64
2022/05/01 01:21:24;;;;;;;4.25;1.60;;;;;;;;;;5021725;28;20041;-65
2022/05/01 01:23:54;;;;;;;3.95;1.63;;;;;;;;;;5021982;28;20111;-65
2022/05/01 01:26:21;;;;;;;5.38;1.73;;;;;;;;;;5020175;28;20199;-65
2022/05/01 01:28:48;;;;;;;9.27;1.70;;;;;;;;;;5019753;28;20030;-65
2022/05/01 01:34:04;;;;;;;6.15;1.80;;;;;;;;;;5020347;28;20099;-64
2022/05/01 01:36:32;;;;;;;10.43;2.22;;;;;;;;;;5019555;28;20654;-65
2022/05/01 01:39:00;;;;;;;4.28;1.58;;;;;;;;;;5020777;28;20049;-64
2022/05/01 01:41:30;;;;;;;9.15;2.15;;;;;;;;;;5002556;28;20048;-63
2022/05/01 01:43:57;;;;;;;5.85;1.90;;;;;;;;;;5020490;28;20422;-64
2022/05/01 01:46:25;;;;;;;5.80;1.80;;;;;;;;;;5020611;28;20453;-64
2022/05/01 01:48:52;;;;;;;8.38;1.90;;;;;;;;;;5021470;28;20060;-63
2022/05/01 01:51:19;;;;;;;7.10;1.73;;;;;;;;;;5022114;28;20041;-63
2022/05/01 01:53:45;;;;;;;10.05;2.08;;;;;;;;;;5021250;28;20034;-65
2022/05/01 01:56:12;;;;;;;6.97;1.70;;;;;;;;;;5021310;28;20102;-63
2022/05/01 01:58:40;;;;;;;7.53;1.92;;;;;;;;;;4999184;28;20395;-64
2022/05/01 02:01:08;;;;;;;8.15;2.05;;;;;;;;;;5021082;28;20037;-64
2022/05/01 02:03:34;;;;;;;5.85;1.80;;;;;;;;;;5019352;28;20037;-64
2022/05/01 02:06:03;;;;;;;5.65;1.70;;;;;;;;;;5020874;28;20044;-64
2022/05/01 02:08:30;;;;;;;6.60;2.17;;;;;;;;;;5020576;28;20132;-65
2022/05/01 02:10:57;;;;;;;4.68;2.00;;;;;;;;;;5021314;28;20076;-65
2022/05/01 02:13:24;;;;;;;4.38;1.55;;;;;;;;;;5020071;28;20136;-64
2022/05/01 02:15:50;;;;;;;5.95;1.77;;;;;;;;;;5021417;28;20037;-64
2022/05/01 02:18:17;;;;;;;4.65;1.90;;;;;;;;;;5018080;28;20083;-65
2022/05/01 02:23:30;;;;;;;9.90;1.80;;;;;;;;;;5031960;28;20059;-64
2022/05/01 02:25:57;;;;;;;6.38;2.00;;;;;;;;;;5040735;28;20492;-65
2022/05/01 02:28:23;;;;;;;6.45;1.70;;;;;;;;;;5037838;28;20037;-64
2022/05/01 02:30:51;;;;;;;9.95;2.03;;;;;;;;;;5040556;28;20045;-64
2022/05/01 02:33:20;;;;;;;5.32;1.75;;;;;;;;;;5039025;28;20040;-64
2022/05/01 02:35:47;;;;;;;4.75;1.80;;;;;;;;;;5039950;28;20039;-65
2022/05/01 02:38:14;;;;;;;7.35;1.90;;;;;;;;;;5039170;28;20052;-65
2022/05/01 02:40:40;;;;;;;4.57;1.83;;;;;;;;;;5038605;28;21923;-64
2022/05/01 02:43:07;;;;;;;4.88;1.70;;;;;;;;;;5038409;28;20041;-65
2022/05/01 02:45:34;;;;;;;6.65;1.77;;;;;;;;;;5039366;28;20044;-65
2022/05/01 02:48:00;;;;;;;6.97;2.08;;;;;;;;;;5038645;28;20448;-65
2022/05/01 02:50:27;;;;;;;3.63;1.40;;;;;;;;;;5039593;28;20066;-64
2022/05/01 02:52:55;;;;;;;4.20;1.50;;;;;;;;;;5039862;28;20029;-65
2022/05/01 02:55:21;;;;;;;5.13;1.77;;;;;;;;;;5039854;28;20033;-66
2022/05/01 02:57:48;;;;;;;6.75;1.50;;;;;;;;;;5040509;28;20049;-65
2022/05/01 03:00:18;;;;;;;4.05;1.75;;;;;;;;;;5039464;28;20606;-64
2022/05/01 03:02:46;;;;;;;4.68;1.80;;;;;;;;;;5037994;28;20044;-64
2022/05/01 03:05:13;;;;;;;8.57;1.60;;;;;;;;;;5039090;28;20029;-65
2022/05/01 03:07:40;;;;;;;4.70;1.98;;;;;;;;;;5036995;28;20097;-63
2022/05/01 03:10:08;;;;;;;6.82;1.95;;;;;;;;;;5038745;28;20044;-65
2022/05/01 03:12:37;;;;;;;4.85;1.90;;;;;;;;;;5018528;28;20033;-64
2022/05/01 03:15:05;;;;;;;5.90;2.90;;;;;;;;;;5038798;28;20484;-64
2022/05/01 03:22:10;;;;;;;5.28;1.90;;;;;;;;;;5037102;28;20823;-66
2022/05/01 03:23:03;;;;;;;6.47;1.83;;;;;;;;;;5037569;28;20092;-65
2022/05/01 03:25:30;;;;;;;5.20;1.67;;;;;;;;;;5036720;28;20128;-65
2022/05/01 03:27:56;;;;;;;6.43;1.75;;;;;;;;;;5037284;28;20162;-65
2022/05/01 03:30:23;;;;;;;6.18;1.70;;;;;;;;;;5037030;28;20033;-65
2022/05/01 03:32:50;;;;;;;4.50;1.83;;;;;;;;;;5037757;28;20437;-65
2022/05/01 03:35:18;;;;;;;6.65;1.73;;;;;;;;;;5037881;28;20044;-66
2022/05/01 03:37:45;;;;;;;5.28;1.40;;;;;;;;;;5038024;28;20453;-65
2022/05/01 03:40:13;;;;;;;5.43;1.58;;;;;;;;;;5037184;28;20036;-65
2022/05/01 03:42:40;;;;;;;6.03;1.60;;;;;;;;;;5021306;28;20127;-65
2022/05/01 03:45:08;;;;;;;5.35;1.50;;;;;;;;;;5035443;28;20112;-65
2022/05/01 03:47:35;;;;;;;5.55;1.73;;;;;;;;;;5036769;28;20079;-65
2022/05/01 03:50:02;;;;;;;6.80;1.83;;;;;;;;;;5037378;28;21196;-65
2022/05/01 03:52:29;;;;;;;6.43;1.60;;;;;;;;;;5037553;28;20037;-65
2022/05/01 03:54:55;;;;;;;4.20;1.33;;;;;;;;;;5035400;28;20072;-65
2022/05/01 03:57:22;;;;;;;4.80;1.73;;;;;;;;;;5036194;28;20560;-65
2022/05/01 03:59:49;;;;;;;3.30;1.27;;;;;;;;;;5036732;28;20037;-64
2022/05/01 04:02:15;;;;;;;5.47;1.48;;;;;;;;;;5037335;28;20051;-66
2022/05/01 04:04:48;;;;;;;4.68;1.48;;;;;;;;;;5036242;28;20045;-66
2022/05/01 04:07:14;;;;;;;10.60;1.77;;;;;;;;;;5038095;28;20045;-67
2022/05/01 04:09:41;;;;;;;4.20;1.13;;;;;;;;;;5036001;28;20127;-66
2022/05/01 04:12:08;;;;;;;6.82;1.60;;;;;;;;;;5038352;28;20435;-65
2022/05/01 04:14:36;;;;;;;7.45;1.55;;;;;;;;;;5036773;28;20522;-64
2022/05/01 04:17:02;;;;;;;4.50;1.52;;;;;;;;;;5039259;28;20611;-64
2022/05/01 04:19:29;;;;;;;3.78;1.38;;;;;;;;;;5037454;28;20040;-64
2022/05/01 04:21:56;;;;;;;2.97;1.33;;;;;;;;;;5011634;28;20210;-65
2022/05/01 04:24:23;;;;;;;3.55;1.30;;;;;;;;;;5035846;28;20120;-65
2022/05/01 04:26:50;;;;;;;4.75;1.20;;;;;;;;;;5037170;28;20409;-65
2022/05/01 04:32:02;;;;;;;4.13;1.38;;;;;;;;;;5037911;28;20087;-64
2022/05/01 04:34:29;;;;;;;6.72;2.00;;;;;;;;;;5037029;28;20047;-64
2022/05/01 04:36:55;;;;;;;6.65;1.63;;;;;;;;;;5037834;28;20095;-66
2022/05/01 04:39:22;;;;;;;8.85;1.63;;;;;;;;;;5036432;28;20041;-66
2022/05/01 04:41:49;;;;;;;4.65;1.55;;;;;;;;;;5037312;28;20056;-66
2022/05/01 04:44:15;;;;;;;5.18;1.42;;;;;;;;;;5038086;28;20041;-66
2022/05/01 04:46:43;;;;;;;3.65;1.30;;;;;;;;;;5036709;28;20035;-66
2022/05/01 04:49:12;;;;;;;7.78;1.40;;;;;;;;;;5036746;28;20036;-66
2022/05/01 04:51:39;;;;;;;7.20;1.52;;;;;;;;;;5037195;28;20051;-66
2022/05/01 04:54:05;;;;;;;3.88;1.13;;;;;;;;;;5037523;28;20041;-66
2022/05/01 04:59:17;;;;;;;6.43;2.83;;;;;;;;;;5037335;28;20066;-67
2022/05/01 05:01:44;;;;;;;8.32;3.88;;;;;;;;;;5036937;28;20041;-68
2022/05/01 05:04:10;;;;;;;4.63;1.95;;;;;;;;;;5037831;28;20079;-66
2022/05/01 05:06:37;;;;;;;5.25;1.40;;;;;;;;;;5035891;28;20037;-66
2022/05/01 05:11:49;;;;;;;6.97;1.58;;;;;;;;;;5036346;28;20122;-66
2022/05/01 05:14:16;;;;;;;7.90;1.33;;;;;;;;;;5035855;28;20029;-67
2022/05/01 05:16:43;;;;;;;7.07;1.50;;;;;;;;;;5034128;28;20040;-66
2022/05/01 05:19:10;;;;;;;3.65;1.30;;;;;;;;;;5036434;28;20270;-66
2022/05/01 05:21:36;;;;;;;7.53;1.60;;;;;;;;;;5035802;28;20049;-66
2022/05/01 05:24:03;;;;;;;5.30;1.20;;;;;;;;;;5036146;28;20188;-65
2022/05/01 05:26:30;;;;;;;5.32;1.55;;;;;;;;;;5035901;28;20675;-66
2022/05/01 05:28:56;;;;;;;6.88;1.33;;;;;;;;;;5037015;28;20069;-67
2022/05/01 05:31:23;;;;;;;4.30;1.50;;;;;;;;;;5035303;28;20078;-66
2022/05/01 05:33:51;;;;;;;4.00;1.50;;;;;;;;;;5036356;28;20041;-66
2022/05/01 05:36:18;;;;;;;4.18;1.30;;;;;;;;;;5036948;28;20037;-66
2022/05/01 05:38:44;;;;;;;6.68;1.42;;;;;;;;;;5035725;28;20520;-66
2022/05/01 05:41:11;;;;;;;5.43;1.30;;;;;;;;;;5039003;28;20641;-66
2022/05/01 05:43:38;;;;;;;4.15;1.23;;;;;;;;;;5038398;28;20083;-65
2022/05/01 05:46:05;;;;;;;4.05;1.45;;;;;;;;;;5039430;28;20970;-66
2022/05/01 05:48:31;;;;;;;5.43;1.42;;;;;;;;;;5039165;28;20102;-65
2022/05/01 05:50:58;;;;;;;4.40;1.33;;;;;;;;;;5040935;28;20044;-65
2022/05/01 05:53:25;;;;;;;4.75;1.48;;;;;;;;;;5022615;28;20037;-65
2022/05/01 05:55:52;;;;;;;3.42;1.35;;;;;;;;;;5040427;28;20061;-65
2022/05/01 05:58:18;;;;;;;5.10;1.30;;;;;;;;;;5039791;28;20079;-65
2022/05/01 06:00:45;;;;;;;6.93;1.42;;;;;;;;;;5040123;28;20552;-65
2022/05/01 06:03:12;;;;;;;4.53;1.35;;;;;;;;;;5040529;28;20045;-65
2022/05/01 06:05:38;;;;;;;6.65;1.25;;;;;;;;;;5039636;28;20041;-65
2022/05/01 06:08:05;;;;;;;3.70;1.08;;;;;;;;;;5039328;28;20076;-65
2022/05/01 06:10:32;;;;;;;11.55;1.25;;;;;;;;;;5037981;28;20039;-66
2022/05/01 06:12:58;;;;;;;4.50;1.27;;;;;;;;;;5039172;28;20102;-65
2022/05/01 06:15:25;;;;;;;4.13;1.10;;;;;;;;;;5038106;28;20078;-66
2022/05/01 06:17:52;;;;;;;6.68;1.52;;;;;;;;;;5039651;28;20099;-65
2022/05/01 06:20:20;;;;;;;5.75;1.30;;;;;;;;;;5039503;28;20051;-65
2022/05/01 06:22:50;;;;;;;4.07;1.50;;;;;;;;;;5039475;28;20358;-66
2022/05/01 06:25:17;;;;;;;4.43;1.08;;;;;;;;;;5039709;28;20170;-66
2022/05/01 06:27:44;;;;;;;5.28;1.60;;;;;;;;;;5039183;28;20045;-65
2022/05/01 06:30:11;;;;;;;4.80;1.30;;;;;;;;;;5039360;28;20033;-65
2022/05/01 06:32:39;;;;;;;3.58;1.15;;;;;;;;;;5040623;28;20482;-67
2022/05/01 06:35:06;;;;;;;4.80;1.20;;;;;;;;;;5041123;28;20060;-65
2022/05/01 06:37:35;;;;;;;7.38;1.20;;;;;;;;;;5040989;28;20036;-66
2022/05/01 06:40:03;;;;;;;3.72;1.38;;;;;;;;;;5041193;28;20852;-66
2022/05/01 06:42:30;;;;;;;4.28;1.20;;;;;;;;;;5040239;28;20881;-65
2022/05/01 06:44:57;;;;;;;4.18;1.30;;;;;;;;;;5040943;28;20045;-65
2022/05/01 06:47:24;;;;;;;5.43;1.48;;;;;;;;;;5022666;28;20037;-66
2022/05/01 06:49:50;;;;;;;4.85;1.35;;;;;;;;;;5040552;28;20592;-65
2022/05/01 06:52:23;;;;;;;4.22;1.60;;;;;;;;;;5040607;28;20497;-65
2022/05/01 06:55:00;;;;;;;5.45;1.50;;;;;;;;;;5041697;28;20099;-65
2022/05/01 06:57:27;;;;;;;6.10;1.20;;;;;;;;;;5041303;28;20047;-66
2022/05/01 06:59:55;;;;;;;3.83;1.58;;;;;;;;;;5040277;28;20033;-66
2022/05/01 07:02:21;;;;;;;6.47;1.27;;;;;;;;;;5040416;28;20037;-66
2022/05/01 07:04:48;;;;;;;3.33;1.10;;;;;;;;;;5041135;28;20040;-65
2022/05/01 07:07:15;;;;;;;7.38;1.42;;;;;;;;;;5040089;28;20041;-66
2022/05/01 07:09:41;;;;;;;5.32;1.50;;;;;;;;;;5038838;28;20130;-65
2022/05/01 07:12:11;;;;;;;4.13;1.27;;;;;;;;;;5021957;28;20037;-66
2022/05/01 07:14:38;;;;;;;4.85;1.20;;;;;;;;;;5038735;28;20049;-66
2022/05/01 07:17:05;;;;;;;6.10;1.30;;;;;;;;;;5038728;28;20102;-66
2022/05/01 07:19:31;;;;;;;6.38;1.20;;;;;;;;;;5037539;28;20029;-65
2022/05/01 07:21:58;;;;;;;9.02;1.42;;;;;;;;;;5039610;28;20037;-65
2022/05/01 07:24:25;;;;;;;8.52;1.50;;;;;;;;;;5038965;28;20041;-66
2022/05/01 07:26:52;;;;;;;4.82;1.50;;;;;;;;;;5038520;28;20045;-66
2022/05/01 07:29:18;;;;;;;3.85;1.10;;;;;;;;;;5037765;28;20045;-66
2022/05/01 07:31:45;;;;;;;6.30;1.40;;;;;;;;;;5039472;28;20098;-66
2022/05/01 07:34:12;;;;;;;6.03;1.33;;;;;;;;;;5038086;28;20029;-65
2022/05/01 07:36:38;;;;;;;4.65;1.60;;;;;;;;;;5020282;28;21467;-66
2022/05/01 07:39:05;;;;;;;7.32;1.40;;;;;;;;;;5038310;28;20037;-66
2022/05/01 07:41:33;;;;;;;4.72;1.33;;;;;;;;;;5036978;28;20460;-66
2022/05/01 07:44:00;;;;;;;8.07;1.10;;;;;;;;;;5038843;28;20043;-65
2022/05/01 07:46:27;;;;;;;6.75;1.25;;;;;;;;;;5038735;28;20032;-66
2022/05/01 07:48:53;;;;;;;4.85;1.27;;;;;;;;;;5037959;28;20053;-66
2022/05/01 07:51:20;;;;;;;5.30;1.30;;;;;;;;;;5036701;28;20033;-65
2022/05/01 07:53:47;;;;;;;3.85;1.50;;;;;;;;;;5038113;28;20041;-65
2022/05/01 07:56:14;;;;;;;7.45;1.58;;;;;;;;;;5038183;28;20041;-65
2022/05/01 07:58:40;;;;;;;4.43;1.42;;;;;;;;;;5037378;28;20041;-65
2022/05/01 08:01:08;;;;;;;5.35;1.50;;;;;;;;;;5038745;28;20048;-66
2022/05/01 08:06:22;;;;;;;5.22;1.58;;;;;;;;;;5038085;28;20047;-65
2022/05/01 08:08:49;;;;;;;6.63;1.42;;;;;;;;;;5037328;28;20099;-65
2022/05/01 08:11:15;;;;;;;5.55;1.42;;;;;;;;;;5038038;28;20037;-65
2022/05/01 08:13:42;;;;;;;4.38;1.38;;;;;;;;;;5033961;28;20033;-65
2022/05/01 08:16:09;;;;;;;4.15;1.50;;;;;;;;;;5036218;28;20061;-65
2022/05/01 08:21:21;;;;;;;4.07;1.30;;;;;;;;;;5037176;28;20056;-65
2022/05/01 08:23:49;;;;;;;4.40;1.52;;;;;;;;;;5037831;28;20053;-65
2022/05/01 08:26:17;;;;;;;4.80;1.45;;;;;;;;;;5035813;28;20037;-65
2022/05/01 08:28:45;;;;;;;7.05;1.50;;;;;;;;;;5036152;28;20080;-65
2022/05/01 08:31:13;;;;;;;4.22;1.55;;;;;;;;;;5021994;28;20632;-65
2022/05/01 08:33:40;;;;;;;5.05;1.48;;;;;;;;;;5037759;28;20139;-65
2022/05/01 08:36:07;;;;;;;6.53;1.65;;;;;;;;;;5038077;28;20044;-65
2022/05/01 08:38:37;;;;;;;5.30;1.40;;;;;;;;;;5036848;28;20099;-65
2022/05/01 08:41:05;;;;;;;4.90;1.60;;;;;;;;;;5038288;28;20090;-64
2022/05/01 08:43:32;;;;;;;4.32;1.70;;;;;;;;;;5036652;28;20124;-65
2022/05/01 08:46:27;;;;;;;3.92;1.63;;;;;;;;;;5037627;28;20505;-65
2022/05/01 08:49:01;;;;;;;4.78;1.42;;;;;;;;;;5036231;28;20048;-64
2022/05/01 08:51:35;;;;;;;8.98;1.67;;;;;;;;;;5036955;28;20052;-65
2022/05/01 08:54:05;;;;;;;4.97;1.63;;;;;;;;;;5037976;28;20128;-65
2022/05/01 08:56:37;;;;;;;6.55;1.95;;;;;;;;;;5036914;28;20064;-66
2022/05/01 08:59:09;;;;;;;4.97;2.00;;;;;;;;;;5037264;28;20138;-66
2022/05/01 09:01:37;;;;;;;5.43;1.80;;;;;;;;;;5036253;28;20045;-66
2022/05/01 09:04:06;;;;;;;4.18;1.65;;;;;;;;;;5037879;28;20037;-64
2022/05/01 09:06:43;;;;;;;12.93;1.85;;;;;;;;;;5037383;28;20528;-64
2022/05/01 09:09:11;;;;;;;4.30;1.50;;;;;;;;;;5037457;28;20040;-65
2022/05/01 09:14:25;;;;;;;6.20;1.80;;;;;;;;;;5040630;28;20047;-66
2022/05/01 09:17:10;;;;;;;9.93;1.92;;;;;;;;;;5041294;28;20406;-65
2022/05/01 09:19:37;;;;;;;4.25;1.95;;;;;;;;;;5022185;28;20905;-65
2022/05/01 09:22:04;;;;;;;4.55;1.95;;;;;;;;;;5041372;28;20493;-66
2022/05/01 09:24:31;;;;;;;5.55;2.00;;;;;;;;;;5041347;28;20510;-65
2022/05/01 09:26:58;;;;;;;3.97;1.67;;;;;;;;;;5040271;28;20044;-65
2022/05/01 09:29:26;;;;;;;6.32;2.00;;;;;;;;;;5038988;28;20789;-65
2022/05/01 09:31:53;;;;;;;6.07;2.05;;;;;;;;;;5040521;28;20045;-65
2022/05/01 09:34:20;;;;;;;9.45;2.15;;;;;;;;;;5040098;28;20052;-66
2022/05/01 09:36:46;;;;;;;6.03;1.80;;;;;;;;;;5040799;28;20036;-66
2022/05/01 09:39:18;;;;;;;8.82;1.98;;;;;;;;;;5040665;28;20122;-66
2022/05/01 09:41:45;;;;;;;8.70;2.38;;;;;;;;;;5040080;28;20175;-65
2022/05/01 09:44:16;;;;;;;6.40;2.20;;;;;;;;;;5041739;28;20087;-65
2022/05/01 09:46:46;;;;;;;6.45;2.42;;;;;;;;;;5039557;28;20561;-65
2022/05/01 09:49:17;;;;;;;6.25;2.25;;;;;;;;;;5022316;28;20136;-66
2022/05/01 09:51:56;;;;;;;8.80;2.67;;;;;;;;;;5039712;28;20045;-65
2022/05/01 09:54:26;;;;;;;8.35;2.58;;;;;;;;;;5021856;28;20037;-65
2022/05/01 09:56:54;;;;;;;9.40;2.83;;;;;;;;;;5040414;28;20725;-65
2022/05/01 09:59:24;;;;;;;6.18;2.45;;;;;;;;;;5039687;28;20037;-65
2022/05/01 10:01:57;;;;;;;8.73;2.58;;;;;;;;;;5039732;28;20129;-64
2022/05/01 10:04:24;;;;;;;8.43;2.53;;;;;;;;;;5040725;28;20045;-66
2022/05/01 10:06:55;;;;;;;7.45;2.20;;;;;;;;;;5040058;28;20107;-65
2022/05/01 10:09:24;;;;;;;11.85;2.10;;;;;;;;;;5038649;28;20036;-64
2022/05/01 10:11:53;;;;;;;6.25;2.30;;;;;;;;;;5040298;28;20037;-65
2022/05/01 10:14:21;;;;;;;7.88;2.47;;;;;;;;;;5039790;28;20067;-65
2022/05/01 10:16:47;;;;;;;5.57;2.08;;;;;;;;;;5039817;28;20044;-65
2022/05/01 10:19:18;;;;;;;11.45;2.80;;;;;;;;;;5040298;28;20091;-66
2022/05/01 10:21:49;;;;;;;8.00;2.33;;;;;;;;;;5040617;28;20442;-65
2022/05/01 10:24:16;;;;;;;6.85;2.58;;;;;;;;;;5039776;28;20041;-65
2022/05/01 10:26:47;;;;;;;6.60;2.70;;;;;;;;;;5039645;28;20028;-65
2022/05/01 10:29:32;;;;;;;8.35;2.72;;;;;;;;;;5040193;28;20067;-65
2022/05/01 10:32:22;;;;;;;5.13;2.55;;;;;;;;;;5039360;28;20040;-66
2022/05/01 10:35:07;;;;;;;7.65;2.50;;;;;;;;;;5038923;28;20040;-65
2022/05/01 10:37:50;;;;;;;9.98;3.15;;;;;;;;;;5038737;28;20049;-65
2022/05/01 10:40:17;;;;;;;10.23;3.33;;;;;;;;;;5039110;28;20033;-65
2022/05/01 10:42:52;;;;;;;8.35;3.17;;;;;;;;;;5039560;28;20037;-65
2022/05/01 10:45:25;;;;;;;9.32;3.10;;;;;;;;;;5039897;28;20123;-65
2022/05/01 10:47:53;;;;;;;6.82;2.80;;;;;;;;;;5038640;28;20432;-65
2022/05/01 10:50:24;;;;;;;6.90;3.33;;;;;;;;;;5038697;28;20037;-65
2022/05/01 10:53:03;;;;;;;7.35;2.40;;;;;;;;;;5039077;28;20053;-64
2022/05/01 10:55:53;;;;;;;6.25;2.72;;;;;;;;;;5038408;28;20132;-65
2022/05/01 10:58:20;;;;;;;5.28;2.40;;;;;;;;;;5038294;28;20847;-66
2022/05/01 11:00:47;;;;;;;9.57;3.40;;;;;;;;;;5038738;28;20120;-65
2022/05/01 11:03:24;;;;;;;9.18;2.90;;;;;;;;;;5038516;28;20061;-65
2022/05/01 11:05:55;;;;;;;8.60;3.30;;;;;;;;;;5038377;28;20032;-65
2022/05/01 11:08:27;;;;;;;7.47;2.83;;;;;;;;;;5038357;28;20409;-66
2022/05/01 11:10:55;;;;;;;8.43;3.22;;;;;;;;;;5038587;28;20047;-65
2022/05/01 11:13:25;;;;;;;6.75;2.80;;;;;;;;;;5037896;28;20175;-65
2022/05/01 11:15:53;;;;;;;7.22;2.80;;;;;;;;;;5039736;28;20108;-65
2022/05/01 11:18:30;;;;;;;8.75;2.75;;;;;;;;;;5037421;28;20375;-64
2022/05/01 11:21:16;;;;;;;9.90;2.92;;;;;;;;;;5038694;28;20878;-64
2022/05/01 11:23:44;;;;;;;5.80;2.78;;;;;;;;;;5022669;28;20128;-65
2022/05/01 11:26:13;;;;;;;15.38;3.28;;;;;;;;;;5018935;28;20033;-64
2022/05/01 11:28:53;;;;;;;7.90;2.90;;;;;;;;;;5017242;28;20117;-65
2022/05/01 11:31:37;;;;;;;6.72;2.55;;;;;;;;;;5018458;28;20033;-64
2022/05/01 11:34:20;;;;;;;8.27;2.85;;;;;;;;;;5018924;28;20070;-65
2022/05/01 11:36:53;;;;;;;7.93;2.70;;;;;;;;;;5017259;28;20052;-65
2022/05/01 11:39:23;;;;;;;7.40;2.22;;;;;;;;;;5015969;28;20721;-65
2022/05/01 11:42:00;;;;;;;7.55;2.42;;;;;;;;;;5018871;28;20033;-65
2022/05/01 11:44:29;;;;;;;7.25;2.90;;;;;;;;;;5015959;28;20033;-65
2022/05/01 11:46:58;;;;;;;6.30;2.40;;;;;;;;;;5018372;28;20045;-65
2022/05/01 11:49:25;;;;;;;5.40;2.10;;;;;;;;;;5017883;28;20104;-65
2022/05/01 11:51:53;;;;;;;8.90;2.22;;;;;;;;;;5019374;28;20052;-65
2022/05/01 11:54:20;;;;;;;11.18;2.45;;;;;;;;;;5017761;28;20049;-65
2022/05/01 12:02:29;;;;;;;8.00;2.60;;;;;;;;;;4945213;28;20066;-65
2022/05/01 12:05:04;;;;;;;7.75;2.40;;;;;;;;;;5017932;28;20049;-64
2022/05/01 12:07:31;;;;;;;5.00;2.20;;;;;;;;;;5018319;28;20063;-65
2022/05/01 12:09:58;;;;;;;9.38;2.45;;;;;;;;;;5018385;28;20133;-64
2022/05/01 12:12:29;;;;;;;6.22;2.30;;;;;;;;;;5016297;28;20061;-64
2022/05/01 12:15:00;;;;;;;6.72;2.83;;;;;;;;;;5018008;28;20165;-65
2022/05/01 12:17:29;;;;;;;4.72;2.10;;;;;;;;;;5017405;28;20038;-65
2022/05/01 12:19:56;;;;;;;8.48;2.15;;;;;;;;;;5018046;28;20422;-65
2022/05/01 12:22:25;;;;;;;14.50;2.40;;;;;;;;;;5016545;28;20072;-65
2022/05/01 12:24:57;;;;;;;6.57;2.60;;;;;;;;;;5000579;28;20049;-66
2022/05/01 12:27:30;;;;;;;11.77;2.65;;;;;;;;;;5017858;28;20536;-65
2022/05/01 12:29:57;;;;;;;10.87;2.80;;;;;;;;;;5018048;28;20518;-65
2022/05/01 12:32:26;;;;;;;7.38;2.60;;;;;;;;;;5015042;28;20049;-65
2022/05/01 12:34:55;;;;;;;7.32;2.50;;;;;;;;;;5019269;28;20052;-64
2022/05/01 12:37:30;;;;;;;12.73;2.53;;;;;;;;;;5017583;28;20422;-64
2022/05/01 12:39:59;;;;;;;8.32;2.65;;;;;;;;;;5018409;28;20931;-65
2022/05/01 12:45:22;;;;;;;6.78;2.35;;;;;;;;;;5018186;28;20621;-65
2022/05/01 12:47:52;;;;;;;7.43;2.42;;;;;;;;;;5018067;28;20517;-65
2022/05/01 12:50:19;;;;;;;8.80;2.60;;;;;;;;;;5022033;28;20037;-64
2022/05/01 12:52:53;;;;;;;10.15;2.55;;;;;;;;;;5021650;28;20510;-65
2022/05/01 12:55:21;;;;;;;10.77;2.83;;;;;;;;;;5021154;28;20095;-65
2022/05/01 12:57:51;;;;;;;9.38;2.80;;;;;;;;;;5022236;28;20029;-65
2022/05/01 13:00:30;;;;;;;6.60;2.50;;;;;;;;;;5022055;28;20084;-65
2022/05/01 13:03:20;;;;;;;7.03;2.42;;;;;;;;;;5021683;28;20045;-65
2022/05/01 13:06:07;;;;;;;6.65;2.42;;;;;;;;;;5008888;28;20061;-65
2022/05/01 13:08:43;;;;;;;11.07;2.50;;;;;;;;;;5021363;28;20084;-65
2022/05/01 13:11:11;;;;;;;8.25;2.70;;;;;;;;;;5021591;28;20048;-66
2022/05/01 13:13:44;;;;;;;6.53;2.45;;;;;;;;;;5020639;28;20037;-66
2022/05/01 13:16:13;;;;;;;6.38;2.47;;;;;;;;;;5021674;28;20048;-64
2022/05/01 13:18:40;;;;;;;4.80;2.03;;;;;;;;;;5020854;28;20947;-65
2022/05/01 13:21:07;;;;;;;8.32;2.88;;;;;;;;;;5021690;28;20046;-65
2022/05/01 13:23:33;;;;;;;8.15;2.80;;;;;;;;;;5033492;28;20060;-65
2022/05/01 13:26:01;;;;;;;10.68;2.65;;;;;;;;;;5041325;28;20041;-65
2022/05/01 13:28:29;;;;;;;5.80;2.63;;;;;;;;;;5040135;28;20066;-65
2022/05/01 13:30:56;;;;;;;12.93;2.85;;;;;;;;;;5040225;28;20033;-65
2022/05/01 13:33:23;;;;;;;6.25;2.80;;;;;;;;;;5039454;28;20962;-65
2022/05/01 13:35:50;;;;;;;6.97;3.10;;;;;;;;;;5040610;28;20053;-66
2022/05/01 13:38:18;;;;;;;10.95;2.92;;;;;;;;;;5041285;28;20156;-66
2022/05/01 13:46:15;;;;;;;7.18;2.63;;;;;;;;;;5040603;28;20514;-65
2022/05/01 13:48:42;;;;;;;10.23;2.70;;;;;;;;;;5039860;28;20063;-65
2022/05/01 13:51:09;;;;;;;10.20;2.70;;;;;;;;;;5023088;28;20052;-66
2022/05/01 13:53:35;;;;;;;8.55;2.78;;;;;;;;;;5039177;28;20072;-65
2022/05/01 13:56:02;;;;;;;6.50;2.83;;;;;;;;;;5040808;28;20044;-65
2022/05/01 13:58:29;;;;;;;8.98;2.75;;;;;;;;;;5040096;28;20592;-66
2022/05/01 14:00:56;;;;;;;6.70;2.90;;;;;;;;;;5039022;28;20374;-66
2022/05/01 14:03:23;;;;;;;7.75;2.92;;;;;;;;;;5038978;28;20120;-66
2022/05/01 14:05:50;;;;;;;12.27;2.70;;;;;;;;;;5040851;28;20140;-66
2022/05/01 14:08:17;;;;;;;9.93;2.97;;;;;;;;;;5041346;28;20136;-66
2022/05/01 14:10:44;;;;;;;9.32;2.70;;;;;;;;;;5039706;28;20029;-66
2022/05/01 14:13:10;;;;;;;7.93;2.85;;;;;;;;;;5039970;28;20037;-66
2022/05/01 14:15:37;;;;;;;14.60;2.95;;;;;;;;;;5039603;28;20470;-66
2022/05/01 14:18:04;;;;;;;9.30;2.60;;;;;;;;;;5040471;28;20071;-66
2022/05/01 14:20:32;;;;;;;15.15;2.80;;;;;;;;;;5040444;28;20040;-66
2022/05/01 14:22:59;;;;;;;11.32;2.67;;;;;;;;;;5040079;28;20088;-66
2022/05/01 14:25:26;;;;;;;8.23;2.53;;;;;;;;;;5021986;28;20151;-66
2022/05/01 14:27:53;;;;;;;7.70;2.35;;;;;;;;;;5040939;28;20051;-65
2022/05/01 14:30:21;;;;;;;9.70;2.70;;;;;;;;;;5040553;28;20040;-66
2022/05/01 14:32:53;;;;;;;6.55;2.42;;;;;;;;;;5040592;28;20041;-66
2022/05/01 14:35:24;;;;;;;6.10;2.30;;;;;;;;;;5023336;28;20065;-66
2022/05/01 14:37:59;;;;;;;5.85;2.03;;;;;;;;;;5041834;28;20107;-66
2022/05/01 14:40:26;;;;;;;9.60;2.40;;;;;;;;;;5041126;28;20074;-66
2022/05/01 14:42:54;;;;;;;5.80;2.38;;;;;;;;;;5041689;28;20041;-66
2022/05/01 14:45:27;;;;;;;5.05;2.20;;;;;;;;;;5041045;28;21920;-66
2022/05/01 14:47:54;;;;;;;6.63;2.67;;;;;;;;;;5040799;28;20060;-65
2022/05/01 14:50:21;;;;;;;10.27;2.47;;;;;;;;;;5040096;28;20206;-64
2022/05/01 14:52:52;;;;;;;7.50;2.35;;;;;;;;;;5040526;28;20577;-65
2022/05/01 14:55:21;;;;;;;6.72;2.10;;;;;;;;;;5039758;28;20041;-66
2022/05/01 14:57:49;;;;;;;10.25;2.60;;;;;;;;;;5038546;28;20037;-66
2022/05/01 15:08:38;;;;;;;8.82;2.35;;;;;;;;;;5040076;28;20055;-66
2022/05/01 15:11:05;;;;;;;7.65;2.20;;;;;;;;;;5039732;28;20040;-65
2022/05/01 15:13:32;;;;;;;6.18;2.20;;;;;;;;;;5039570;28;20037;-66
2022/05/01 15:15:59;;;;;;;8.18;2.28;;;;;;;;;;5040871;28;20513;-66
2022/05/01 15:18:31;;;;;;;5.05;2.45;;;;;;;;;;5040019;28;20835;-65
2022/05/01 15:21:10;;;;;;;9.18;2.50;;;;;;;;;;5040386;28;20662;-65
2022/05/01 15:23:44;;;;;;;7.50;2.10;;;;;;;;;;5039524;28;20056;-64
2022/05/01 15:26:11;;;;;;;9.82;2.00;;;;;;;;;;5040238;28;20473;-65
2022/05/01 15:28:38;;;;;;;6.57;1.90;;;;;;;;;;5038240;28;20130;-65
2022/05/01 15:31:05;;;;;;;5.82;2.20;;;;;;;;;;5040475;28;20036;-65
2022/05/01 15:36:15;;;;;;;7.22;2.17;;;;;;;;;;5040312;28;20358;-65
2022/05/01 15:38:42;;;;;;;9.45;2.45;;;;;;;;;;5021215;28;20052;-65
2022/05/01 15:41:17;;;;;;;10.35;2.60;;;;;;;;;;5039717;28;20052;-65